createdAt,value
2023-02-01T00:00:31.959Z,21.34
2023-02-01T00:02:58.731Z,22.37
2023-02-01T00:05:25.445Z,21.62
2023-02-01T00:07:52.533Z,21.93
2023-02-01T00:10:19.521Z,22.65
2023-02-01T00:12:47.015Z,23.09
2023-02-01T00:15:13.734Z,21.24
2023-02-01T00:17:40.486Z,21.26
2023-02-01T00:20:07.825Z,21.44
2023-02-01T00:22:34.775Z,19.86
2023-02-01T00:25:01.530Z,23.42
2023-02-01T00:27:28.214Z,21.04
2023-02-01T00:29:58.253Z,21.93
2023-02-01T00:32:25.019Z,21.39
2023-02-01T00:34:51.774Z,20.85
2023-02-01T00:37:19.264Z,21.36
2023-02-01T00:39:46.128Z,21.14
2023-02-01T00:42:13.129Z,21.47
2023-02-01T00:44:39.891Z,23.53
2023-02-01T00:47:07.940Z,22.20
2023-02-01T00:49:34.704Z,22.17
2023-02-01T00:52:01.576Z,21.91
2023-02-01T00:54:28.393Z,21.52
2023-02-01T00:56:55.079Z,24.25
2023-02-01T00:59:21.761Z,23.08
2023-02-01T01:01:48.483Z,24.02
2023-02-01T01:04:15.260Z,22.60
2023-02-01T01:06:42.055Z,22.97
2023-02-01T01:09:09.411Z,23.26
2023-02-01T01:11:38.517Z,21.10
2023-02-01T01:14:08.126Z,22.88
2023-02-01T01:16:35.939Z,22.37
2023-02-01T01:19:03.124Z,21.87
2023-02-01T01:21:31.138Z,20.31
2023-02-01T01:23:58.754Z,22.23
2023-02-01T01:26:29.755Z,21.46
2023-02-01T01:28:58.466Z,20.73
2023-02-01T01:31:25.643Z,21.61
2023-02-01T01:33:54.765Z,22.11
2023-02-01T01:36:22.668Z,23.26
2023-02-01T01:38:50.548Z,24.61
2023-02-01T01:41:20.920Z,22.71
2023-02-01T01:44:02.973Z,24.11
2023-02-01T01:46:32.587Z,24.59
2023-02-01T01:49:04.931Z,23.08
2023-02-01T01:51:36.227Z,23.61
2023-02-01T01:54:18.086Z,24.81
2023-02-01T01:56:51.627Z,26.25
2023-02-01T01:59:18.698Z,24.87
2023-02-01T02:01:46.425Z,26.67
2023-02-01T02:04:13.674Z,25.52
2023-02-01T02:06:52.553Z,24.23
2023-02-01T02:09:19.276Z,24.75
2023-02-01T02:11:46.225Z,24.82
2023-02-01T02:14:18.562Z,25.11
2023-02-01T02:16:54.715Z,26.84
2023-02-01T02:19:45.482Z,26.02
2023-02-01T02:22:40.089Z,24.76
2023-02-01T02:25:25.716Z,25.51
2023-02-01T02:28:02.217Z,27.56
2023-02-01T02:30:52.255Z,25.94
2023-02-01T02:33:37.438Z,25.97
2023-02-01T02:36:44.193Z,26.49
2023-02-01T02:39:20.297Z,24.54
2023-02-01T02:42:15.814Z,25.84
2023-02-01T02:45:10.099Z,27.54
2023-02-01T02:47:48.983Z,27.04
2023-02-01T02:50:44.122Z,26.70
2023-02-01T02:53:38.107Z,26.97
2023-02-01T02:56:27.165Z,28.03
2023-02-01T02:59:14.229Z,24.58
2023-02-01T03:02:00.800Z,25.53
2023-02-01T03:04:28.047Z,26.44
2023-02-01T03:06:55.574Z,23.64
2023-02-01T03:09:33.021Z,26.21
2023-02-01T03:12:24.100Z,27.58
2023-02-01T03:14:55.996Z,25.66
2023-02-01T03:17:32.011Z,27.13
2023-02-01T03:20:02.370Z,25.21
2023-02-01T03:22:33.784Z,25.15
2023-02-01T03:25:26.399Z,26.61
2023-02-01T03:27:59.383Z,25.81
2023-02-01T03:30:44.341Z,26.20
2023-02-01T03:33:24.564Z,26.15
2023-02-01T03:36:08.143Z,25.88
2023-02-01T03:38:40.998Z,26.14
2023-02-01T03:41:28.579Z,25.92
2023-02-01T03:44:18.116Z,24.68
2023-02-01T03:46:52.450Z,28.03
2023-02-01T03:49:35.121Z,26.78
2023-02-01T03:52:06.363Z,25.89
2023-02-01T03:54:34.595Z,26.24
2023-02-01T03:57:08.495Z,24.97
2023-02-01T03:59:42.580Z,25.75
2023-02-01T04:02:09.938Z,25.42
2023-02-01T04:04:38.435Z,25.40
2023-02-01T04:07:06.011Z,26.05
2023-02-01T04:09:33.010Z,26.58
2023-02-01T04:12:01.064Z,26.16
2023-02-01T04:14:27.769Z,27.22
2023-02-01T04:16:55.251Z,25.83
2023-02-01T04:19:22.473Z,24.02
2023-02-01T04:21:49.452Z,23.89
2023-02-01T04:24:16.177Z,24.07
2023-02-01T04:26:44.181Z,23.54
2023-02-01T04:29:11.582Z,26.56
2023-02-01T04:31:38.431Z,26.54
2023-02-01T04:34:05.179Z,24.52
2023-02-01T04:36:31.872Z,23.52
2023-02-01T04:38:59.004Z,25.04
2023-02-01T04:41:26.103Z,24.63
2023-02-01T04:43:53.575Z,26.06
2023-02-01T04:46:20.821Z,24.27
2023-02-01T04:48:47.905Z,25.50
2023-02-01T04:51:16.199Z,26.17
2023-02-01T04:53:43.013Z,23.91
2023-02-01T04:56:09.724Z,23.72
2023-02-01T04:58:36.820Z,24.47
2023-02-01T05:01:05.649Z,25.49
2023-02-01T05:03:34.542Z,26.06
2023-02-01T05:06:01.554Z,24.71
2023-02-01T05:08:30.346Z,25.22
2023-02-01T05:10:57.303Z,25.22
2023-02-01T05:13:42.327Z,24.16
2023-02-01T05:16:09.193Z,23.87
2023-02-01T05:18:36.032Z,24.32
2023-02-01T05:21:02.906Z,25.75
2023-02-01T05:23:29.727Z,24.18
2023-02-01T05:26:01.628Z,24.86
2023-02-01T05:28:29.517Z,24.37
2023-02-01T05:30:56.633Z,22.40
2023-02-01T05:33:23.419Z,24.84
2023-02-01T05:35:51.556Z,27.38
2023-02-01T05:38:18.639Z,26.75
2023-02-01T05:40:50.669Z,24.56
2023-02-01T05:43:17.658Z,25.22
2023-02-01T05:45:44.620Z,24.06
2023-02-01T05:48:11.306Z,24.07
2023-02-01T05:50:38.332Z,24.05
2023-02-01T05:53:09.290Z,24.59
2023-02-01T05:55:36.971Z,27.13
2023-02-01T05:58:04.365Z,25.24
2023-02-01T06:00:31.469Z,25.60
2023-02-01T06:02:58.542Z,24.11
2023-02-01T06:05:25.912Z,25.01
2023-02-01T06:07:53.763Z,25.11
2023-02-01T06:10:21.385Z,24.66
2023-02-01T06:12:48.468Z,25.74
2023-02-01T06:15:19.625Z,25.40
2023-02-01T06:17:47.095Z,24.30
2023-02-01T06:20:16.092Z,25.22
2023-02-01T06:22:42.853Z,25.57
2023-02-01T06:25:11.448Z,24.18
2023-02-01T06:27:39.047Z,26.50
2023-02-01T06:30:07.607Z,24.91
2023-02-01T06:32:34.861Z,24.72
2023-02-01T06:35:01.674Z,23.97
2023-02-01T06:37:31.271Z,23.36
2023-02-01T06:39:58.043Z,24.69
2023-02-01T06:42:24.865Z,23.23
2023-02-01T06:44:51.588Z,23.57
2023-02-01T06:47:18.323Z,25.25
2023-02-01T06:49:45.289Z,23.79
2023-02-01T06:52:12.564Z,26.60
2023-02-01T06:54:39.369Z,23.63
2023-02-01T06:57:06.142Z,24.08
2023-02-01T06:59:32.903Z,27.27
2023-02-01T07:01:59.760Z,23.29
2023-02-01T07:04:26.808Z,24.52
2023-02-01T07:06:53.602Z,26.28
2023-02-01T07:09:20.481Z,24.78
2023-02-01T07:11:47.245Z,24.96
2023-02-01T07:14:14.246Z,25.43
2023-02-01T07:16:41.066Z,25.00
2023-02-01T07:19:08.771Z,25.31
2023-02-01T07:21:35.460Z,23.94
2023-02-01T07:24:02.233Z,26.00
2023-02-01T07:26:28.975Z,25.09
2023-02-01T07:28:55.894Z,26.72
2023-02-01T07:31:23.172Z,24.42
2023-02-01T07:33:53.803Z,25.82
2023-02-01T07:36:21.264Z,25.32
2023-02-01T07:38:48.297Z,25.90
2023-02-01T07:41:15.830Z,26.61
2023-02-01T07:43:42.994Z,24.20
2023-02-01T07:46:11.963Z,26.35
2023-02-01T07:48:39.292Z,24.93
2023-02-01T07:51:09.363Z,25.87
2023-02-01T07:53:36.759Z,23.69
2023-02-01T07:56:05.095Z,23.73
2023-02-01T07:58:32.626Z,23.24
2023-02-01T08:01:17.851Z,25.65
2023-02-01T08:03:44.643Z,24.84
2023-02-01T08:06:11.718Z,26.25
2023-02-01T08:08:39.073Z,24.98
2023-02-01T08:11:07.889Z,23.59
2023-02-01T08:13:36.515Z,23.86
2023-02-01T08:16:06.109Z,24.11
2023-02-01T08:18:33.826Z,24.38
2023-02-01T08:21:09.629Z,25.08
2023-02-01T08:23:38.500Z,23.73
2023-02-01T08:26:16.321Z,25.45
2023-02-01T08:28:45.269Z,22.96
2023-02-01T08:31:17.959Z,26.41
2023-02-01T08:33:48.639Z,23.51
2023-02-01T08:36:15.355Z,23.42
2023-02-01T08:38:42.326Z,22.82
2023-02-01T08:41:12.552Z,25.38
2023-02-01T08:43:40.119Z,23.91
2023-02-01T08:46:07.750Z,23.61
2023-02-01T08:48:35.952Z,23.26
2023-02-01T08:51:09.299Z,27.93
2023-02-01T08:53:37.124Z,23.47
2023-02-01T08:56:05.149Z,27.22
2023-02-01T08:58:31.930Z,22.39
2023-02-01T09:01:04.121Z,24.64
2023-02-01T09:03:31.412Z,25.59
2023-02-01T09:06:06.532Z,24.15
2023-02-01T09:08:34.276Z,23.30
2023-02-01T09:11:03.565Z,24.87
2023-02-01T09:13:30.508Z,25.17
2023-02-01T09:15:57.320Z,24.04
2023-02-01T09:18:24.467Z,23.05
2023-02-01T09:20:51.403Z,22.71
2023-02-01T09:23:18.247Z,23.88
2023-02-01T09:25:45.046Z,23.21
2023-02-01T09:28:11.837Z,22.21
2023-02-01T09:30:39.289Z,22.92
2023-02-01T09:33:06.489Z,22.68
2023-02-01T09:35:33.400Z,21.88
2023-02-01T09:38:00.362Z,22.46
2023-02-01T09:40:27.729Z,23.55
2023-02-01T09:43:06.173Z,22.58
2023-02-01T09:45:42.213Z,23.03
2023-02-01T09:48:18.953Z,23.09
2023-02-01T09:50:51.728Z,22.20
2023-02-01T09:53:26.235Z,22.81
2023-02-01T09:55:58.234Z,24.27
2023-02-01T09:58:36.660Z,22.64
2023-02-01T10:01:06.400Z,21.90
2023-02-01T10:03:36.945Z,21.22
2023-02-01T10:06:21.888Z,23.13
2023-02-01T10:09:07.744Z,20.92
2023-02-01T10:11:52.083Z,24.52
2023-02-01T10:14:39.276Z,23.22
2023-02-01T10:17:24.893Z,22.54
2023-02-01T10:20:10.076Z,21.18
2023-02-01T10:23:31.244Z,24.70
2023-02-01T10:26:10.654Z,23.67
2023-02-01T10:28:40.598Z,20.93
2023-02-01T10:31:10.070Z,21.56
2023-02-01T10:33:49.931Z,23.01
2023-02-01T10:36:22.383Z,21.23
2023-02-01T10:38:49.326Z,25.51
2023-02-01T10:41:22.241Z,22.25
2023-02-01T10:43:58.607Z,23.50
2023-02-01T10:46:26.604Z,23.25
2023-02-01T10:48:56.769Z,23.83
2023-02-01T10:51:39.864Z,24.35
2023-02-01T10:54:17.572Z,21.75
2023-02-01T10:56:48.846Z,23.82
2023-02-01T10:59:19.145Z,24.00
2023-02-01T11:01:48.773Z,23.53
2023-02-01T11:04:21.212Z,21.68
2023-02-01T11:06:52.234Z,21.61
2023-02-01T11:09:25.643Z,23.10
2023-02-01T11:11:52.509Z,25.80
2023-02-01T11:14:26.893Z,20.78
2023-02-01T11:16:56.283Z,22.43
2023-02-01T11:19:23.097Z,22.55
2023-02-01T11:21:52.739Z,23.67
2023-02-01T11:24:36.619Z,22.83
2023-02-01T11:27:07.094Z,22.57
2023-02-01T11:29:41.870Z,21.94
2023-02-01T11:32:11.363Z,24.80
2023-02-01T11:34:42.271Z,23.24
2023-02-01T11:37:22.469Z,24.87
2023-02-01T11:40:00.646Z,24.14
2023-02-01T11:42:29.637Z,23.02
2023-02-01T11:45:20.524Z,22.58
2023-02-01T11:47:47.966Z,23.03
2023-02-01T11:50:28.727Z,22.86
2023-02-01T11:53:09.008Z,21.26
2023-02-01T11:55:41.688Z,22.85
2023-02-01T11:58:30.781Z,23.61
2023-02-01T12:01:33.259Z,24.14
2023-02-01T12:04:18.515Z,22.13
2023-02-01T12:06:54.925Z,22.88
2023-02-01T12:09:34.974Z,23.11
2023-02-01T12:12:37.195Z,22.35
2023-02-01T12:15:54.368Z,21.07
2023-02-01T12:18:41.353Z,21.32
2023-02-01T12:21:37.480Z,23.53
2023-02-01T12:24:10.785Z,22.48
2023-02-01T12:27:31.337Z,22.40
2023-02-01T12:30:13.044Z,23.33
2023-02-01T12:33:04.856Z,22.62
2023-02-01T12:36:28.667Z,24.44
2023-02-01T12:39:23.013Z,20.88
2023-02-01T12:41:54.286Z,22.85
2023-02-01T12:44:45.728Z,22.42
2023-02-01T12:47:38.336Z,21.33
2023-02-01T12:50:22.815Z,22.39
2023-02-01T12:52:53.557Z,22.56
2023-02-01T12:55:29.104Z,24.43
2023-02-01T12:58:21.474Z,24.07
2023-02-01T13:01:00.099Z,22.16
2023-02-01T13:03:42.368Z,22.00
2023-02-01T13:06:12.460Z,21.65
2023-02-01T13:08:53.141Z,23.31
2023-02-01T13:11:35.099Z,23.81
2023-02-01T13:14:09.161Z,21.70
2023-02-01T13:16:44.357Z,21.07
2023-02-01T13:19:36.608Z,22.57
2023-02-01T13:22:22.236Z,20.64
2023-02-01T13:24:49.239Z,23.33
2023-02-01T13:27:18.208Z,21.49
2023-02-01T13:30:07.556Z,20.60
2023-02-01T13:33:52.257Z,23.16
2023-02-01T13:36:05.527Z,23.36
2023-02-01T13:39:06.160Z,22.82
2023-02-01T13:41:53.218Z,24.48
2023-02-01T13:44:35.358Z,21.57
2023-02-01T13:47:11.049Z,23.17
2023-02-01T13:49:40.716Z,21.95
2023-02-01T13:52:22.169Z,24.01
2023-02-01T13:54:49.395Z,22.61
2023-02-01T13:57:35.654Z,20.94
2023-02-01T14:00:35.870Z,21.56
2023-02-01T14:03:43.557Z,21.28
2023-02-01T14:06:40.245Z,23.51
2023-02-01T14:09:33.379Z,21.37
2023-02-01T14:12:38.997Z,20.69
2023-02-01T14:15:24.689Z,23.40
2023-02-01T14:17:52.173Z,21.26
2023-02-01T14:20:37.716Z,20.76
2023-02-01T14:23:05.696Z,23.51
2023-02-01T14:25:36.050Z,25.36
2023-02-01T14:28:11.143Z,23.73
2023-02-01T14:30:38.081Z,22.35
2023-02-01T14:33:24.300Z,23.97
2023-02-01T14:36:14.566Z,22.06
2023-02-01T14:38:51.066Z,24.62
2023-02-01T14:41:36.179Z,23.32
2023-02-01T14:44:03.029Z,22.67
2023-02-01T14:47:06.686Z,23.09
2023-02-01T14:49:38.459Z,21.71
2023-02-01T14:52:13.350Z,23.01
2023-02-01T14:54:41.019Z,24.64
2023-02-01T14:57:17.288Z,23.58
2023-02-01T14:59:46.714Z,22.36
2023-02-01T15:02:22.746Z,23.82
2023-02-01T15:04:58.683Z,25.30
2023-02-01T15:07:28.409Z,23.21
2023-02-01T15:10:18.789Z,21.63
2023-02-01T15:12:49.448Z,23.23
2023-02-01T15:15:25.397Z,22.54
2023-02-01T15:17:52.282Z,21.94
2023-02-01T15:20:19.372Z,21.14
2023-02-01T15:23:06.797Z,21.48
2023-02-01T15:25:39.593Z,22.78
2023-02-01T15:28:13.798Z,22.00
2023-02-01T15:30:41.182Z,22.32
2023-02-01T15:33:17.878Z,21.77
2023-02-01T15:36:06.661Z,22.95
2023-02-01T15:38:37.100Z,21.26
2023-02-01T15:41:11.722Z,22.93
2023-02-01T15:43:53.013Z,23.21
2023-02-01T15:46:33.228Z,23.11
2023-02-01T15:49:00.624Z,23.38
2023-02-01T15:51:30.611Z,24.17
2023-02-01T15:54:02.362Z,22.55
2023-02-01T15:56:34.912Z,22.37
2023-02-01T15:59:05.898Z,22.12
2023-02-01T16:01:38.696Z,24.66
2023-02-01T16:04:19.026Z,23.25
2023-02-01T16:06:52.272Z,23.89
2023-02-01T16:09:22.228Z,22.42
2023-02-01T16:12:00.981Z,22.86
2023-02-01T16:14:28.396Z,24.48
2023-02-01T16:16:58.119Z,24.66
2023-02-01T16:19:29.141Z,23.91
2023-02-01T16:21:57.236Z,23.35
2023-02-01T16:24:26.839Z,22.09
2023-02-01T16:26:53.739Z,23.41
2023-02-01T16:29:22.488Z,24.66
2023-02-01T16:31:50.240Z,25.40
2023-02-01T16:34:18.920Z,23.94
2023-02-01T16:36:53.376Z,23.30
2023-02-01T16:39:21.220Z,23.82
2023-02-01T16:41:48.640Z,23.16
2023-02-01T16:44:15.416Z,22.66
2023-02-01T16:46:46.093Z,24.12
2023-02-01T16:49:22.492Z,23.21
2023-02-01T16:51:52.673Z,24.87
2023-02-01T16:54:20.407Z,23.54
2023-02-01T16:56:48.879Z,23.33
2023-02-01T16:59:16.079Z,23.39
2023-02-01T17:01:43.760Z,22.96
2023-02-01T17:04:11.085Z,23.42
2023-02-01T17:06:39.512Z,21.52
2023-02-01T17:09:07.533Z,23.28
2023-02-01T17:11:34.494Z,23.47
2023-02-01T17:14:17.294Z,24.19
2023-02-01T17:16:46.460Z,21.43
2023-02-01T17:19:19.944Z,22.62
2023-02-01T17:21:56.961Z,21.57
2023-02-01T17:24:35.759Z,23.14
2023-02-01T17:27:07.334Z,24.21
2023-02-01T17:29:34.131Z,24.78
2023-02-01T17:32:01.410Z,22.32
2023-02-01T17:34:28.755Z,22.25
2023-02-01T17:36:55.958Z,23.58
2023-02-01T17:39:41.732Z,23.04
2023-02-01T17:42:12.638Z,22.68
2023-02-01T17:44:39.499Z,23.60
2023-02-01T17:47:06.760Z,21.38
2023-02-01T17:49:35.908Z,21.32
2023-02-01T17:52:03.378Z,21.23
2023-02-01T17:54:30.318Z,21.24
2023-02-01T17:57:00.375Z,22.45
2023-02-01T17:59:27.716Z,22.31
2023-02-01T18:02:00.779Z,22.45
2023-02-01T18:04:27.846Z,21.20
2023-02-01T18:06:54.610Z,21.87
2023-02-01T18:09:22.254Z,20.22
2023-02-01T18:11:50.662Z,21.88
2023-02-01T18:14:17.478Z,22.88
2023-02-01T18:16:44.727Z,20.41
2023-02-01T18:19:11.779Z,23.02
2023-02-01T18:21:42.978Z,21.37
2023-02-01T18:24:14.546Z,22.71
2023-02-01T18:26:42.542Z,22.32
2023-02-01T18:29:09.357Z,22.08
2023-02-01T18:31:41.494Z,23.36
2023-02-01T18:34:10.910Z,22.43
2023-02-01T18:36:38.519Z,22.25
2023-02-01T18:39:05.269Z,22.15
2023-02-01T18:41:32.035Z,22.09
2023-02-01T18:43:58.869Z,21.45
2023-02-01T18:46:26.126Z,22.10
2023-02-01T18:48:53.419Z,21.44
2023-02-01T18:51:20.671Z,23.40
2023-02-01T18:53:48.789Z,21.15
2023-02-01T18:56:18.767Z,22.19
2023-02-01T18:58:45.990Z,22.79
2023-02-01T19:01:16.474Z,21.10
2023-02-01T19:03:45.489Z,23.14
2023-02-01T19:06:15.358Z,21.92
2023-02-01T19:08:42.307Z,22.38
2023-02-01T19:11:10.484Z,23.85
2023-02-01T19:13:38.779Z,22.30
2023-02-01T19:16:10.780Z,22.75
2023-02-01T19:18:38.687Z,22.74
2023-02-01T19:21:08.921Z,22.81
2023-02-01T19:23:35.889Z,22.42
2023-02-01T19:26:02.567Z,21.61
2023-02-01T19:28:29.317Z,23.27
2023-02-01T19:31:04.246Z,23.09
2023-02-01T19:33:31.394Z,23.39
2023-02-01T19:36:05.894Z,23.76
2023-02-01T19:38:35.951Z,23.61
2023-02-01T19:41:02.790Z,22.16
2023-02-01T19:43:29.806Z,23.72
2023-02-01T19:45:57.734Z,24.12
2023-02-01T19:48:24.827Z,24.48
2023-02-01T19:50:51.667Z,22.98
2023-02-01T19:53:19.603Z,24.97
2023-02-01T19:55:47.304Z,24.36
2023-02-01T19:58:14.736Z,22.87
2023-02-01T20:00:41.332Z,22.36
2023-02-01T20:03:10.181Z,24.54
2023-02-01T20:05:37.749Z,23.87
2023-02-01T20:08:04.851Z,24.21
2023-02-01T20:10:31.780Z,23.11
2023-02-01T20:12:58.595Z,24.01
2023-02-01T20:15:27.156Z,22.97
2023-02-01T20:17:54.410Z,23.09
2023-02-01T20:20:21.162Z,23.51
2023-02-01T20:22:48.042Z,22.43
2023-02-01T20:25:15.177Z,23.07
2023-02-01T20:27:43.170Z,22.90
2023-02-01T20:30:10.726Z,23.54
2023-02-01T20:32:37.519Z,23.97
2023-02-01T20:35:04.642Z,23.51
2023-02-01T20:37:31.937Z,24.32
2023-02-01T20:39:59.335Z,23.37
2023-02-01T20:42:26.071Z,22.93
2023-02-01T20:44:52.787Z,23.21
2023-02-01T20:47:19.758Z,22.67
2023-02-01T20:49:46.466Z,24.13
2023-02-01T20:52:13.381Z,23.95
2023-02-01T20:54:40.127Z,23.94
2023-02-01T20:57:07.061Z,25.01
2023-02-01T20:59:33.815Z,24.68
2023-02-01T21:02:01.507Z,23.98
2023-02-01T21:04:29.563Z,23.19
2023-02-01T21:06:58.011Z,23.23
2023-02-01T21:09:26.071Z,25.07
2023-02-01T21:11:53.921Z,22.87
2023-02-01T21:14:20.994Z,23.59
2023-02-01T21:16:48.819Z,25.69
2023-02-01T21:19:17.642Z,22.82
2023-02-01T21:21:44.832Z,22.40
2023-02-01T21:24:11.635Z,23.94
2023-02-01T21:26:41.235Z,25.50
2023-02-01T21:29:13.873Z,25.74
2023-02-01T21:31:42.266Z,24.54
2023-02-01T21:34:10.094Z,25.01
2023-02-01T21:36:37.588Z,24.08
2023-02-01T21:39:07.717Z,26.41
2023-02-01T21:41:55.311Z,24.55
2023-02-01T21:44:23.148Z,26.40
2023-02-01T21:46:50.415Z,26.60
2023-02-01T21:49:17.250Z,25.21
2023-02-01T21:51:44.090Z,24.33
2023-02-01T21:54:12.038Z,25.75
2023-02-01T21:56:40.279Z,23.56
2023-02-01T21:59:07.891Z,23.33
2023-02-01T22:01:34.583Z,24.23
2023-02-01T22:04:01.565Z,23.97
2023-02-01T22:06:41.311Z,23.53
2023-02-01T22:09:16.936Z,24.88
2023-02-01T22:11:44.438Z,24.03
2023-02-01T22:14:11.606Z,23.21
2023-02-01T22:16:38.442Z,24.42
2023-02-01T22:19:05.772Z,24.43
2023-02-01T22:21:32.818Z,22.63
2023-02-01T22:23:59.491Z,23.77
2023-02-01T22:26:27.860Z,23.19
2023-02-01T22:28:55.603Z,23.75
2023-02-01T22:31:23.095Z,23.95
2023-02-01T22:33:50.864Z,25.26
2023-02-01T22:36:18.182Z,24.46
2023-02-01T22:38:46.327Z,25.67
2023-02-01T22:41:13.439Z,22.92
2023-02-01T22:43:40.674Z,25.70
2023-02-01T22:46:12.354Z,24.89
2023-02-01T22:48:41.002Z,26.73
2023-02-01T22:51:11.937Z,27.47
2023-02-01T22:53:38.849Z,27.98
2023-02-01T22:56:07.369Z,25.43
2023-02-01T22:58:37.705Z,26.95
2023-02-01T23:01:12.068Z,28.20
2023-02-01T23:03:40.123Z,26.23
2023-02-01T23:06:08.490Z,26.81
2023-02-01T23:08:36.258Z,26.29
2023-02-01T23:11:06.563Z,25.52
2023-02-01T23:13:34.489Z,27.41
2023-02-01T23:16:10.043Z,27.25
2023-02-01T23:18:37.359Z,26.98
2023-02-01T23:21:06.458Z,28.63
2023-02-01T23:23:33.908Z,27.05
2023-02-01T23:26:01.284Z,26.72
2023-02-01T23:28:29.180Z,28.60
2023-02-01T23:30:56.596Z,27.35
2023-02-01T23:33:27.721Z,30.11
2023-02-01T23:35:59.179Z,29.43
2023-02-01T23:38:27.546Z,31.27
2023-02-01T23:40:59.221Z,28.63
2023-02-01T23:43:45.508Z,28.70
2023-02-01T23:46:13.472Z,29.25
2023-02-01T23:48:40.420Z,29.08
2023-02-01T23:51:07.584Z,28.83
2023-02-01T23:53:34.908Z,27.01
2023-02-01T23:56:02.023Z,27.33
2023-02-01T23:58:28.783Z,28.61
